Аэропорт: Чертовицкое. Воронеж

ICAO: UUOO

METAR:
2019-07-23 18:30:00
UUOO 231830Z 12002MPS 3100 BR NSC 18/17 Q1011 R12/290150 NOSIG RMK QFE744
METAR:
2019-07-23 17:31:00
TAF AMD UUOO 231731Z 2318/2403 14003MPS 0500 FG BKN011 BKN020 TEMPO 2318/2321 2100 BR BKN008 BKN015CB